This is the latest recevied weather packets stored in our database for station/object KB3YCK-2. If no packets are shown the sender has not sent any weather packets the latest 10 day(s).
| Time | Temp. | Humidity | Pressure | Rain* | Wind** | Luminosity | Snow |
|---|---|---|---|---|---|---|---|
| 1778216108 | 9.44° C | 86% | 1010.7 hPa | 0 mm | - | 0 W/m² | - |
| 1778214918 | 10° C | 85% | 1010.6 hPa | 0 mm | - | 0 W/m² | - |
| 1778214010 | 10° C | 85% | 1010.6 hPa | 0 mm | - | 0 W/m² | - |
| 1778211316 | 10° C | 85% | 1010.4 hPa | 0 mm | - | 0 W/m² | - |
| 1778210704 | 10.56° C | 84% | 1010.6 hPa | 0 mm | - | 0 W/m² | - |
| 1778207106 | 10.56° C | 83% | 1010.5 hPa | 0 mm | - | 0 W/m² | - |
| 1778206516 | 10.56° C | 83% | 1010.6 hPa | 0 mm | - | 0 W/m² | - |
| 1778202905 | 10.56° C | 78% | 1009.7 hPa | 0 mm | - | 0 W/m² | - |
| 1778202602 | 10.56° C | 77% | 1009.6 hPa | 0 mm | - | 0 W/m² | - |
| 1778201112 | 11.67° C | 75% | 1009.3 hPa | 0 mm | - | 0 W/m² | - |
| 1778199306 | 13.33° C | 72% | 1009 hPa | 0 mm | - | 0 W/m² | - |
| 1778196008 | 16.67° C | 62% | 1008.6 hPa | 0 mm | - | 23 W/m² | - |
| 1778195412 | 16.67° C | 62% | 1008.7 hPa | 0 mm | - | 28 W/m² | - |
| 1778189703 | 17.78° C | 58% | 1008.9 hPa | 0 mm | - | 410 W/m² | - |
| 1778189406 | 17.78° C | 59% | 1008.8 hPa | 0 mm | - | 425 W/m² | - |
| 1778188812 | 17.78° C | 58% | 1008.9 hPa | 0 mm | - | 84 W/m² | - |
| 1778178304 | 17.22° C | 65% | 1009.8 hPa | 0 mm | - | 735 W/m² | - |
| 1778177406 | 17.22° C | 68% | 1009.7 hPa | 0 mm | - | 868 W/m² | - |
| 1778176805 | 16.67° C | 69% | 1009.7 hPa | 0 mm | - | 875 W/m² | - |
| 1778173207 | 16.11° C | 65% | 1010.7 hPa | 0 mm | - | 900 W/m² | - |
| 1778171706 | 15.56° C | 67% | 1011.1 hPa | 0 mm | - | 900 W/m² | - |
| 1778169906 | 15° C | 72% | 1011.5 hPa | 0 mm | - | 902 W/m² | - |
| 1778169003 | 14.44° C | 75% | 1011.4 hPa | 0 mm | - | 879 W/m² | - |
| 1778167823 | 13.33° C | 75% | 1011.8 hPa | 0 mm | - | 513 W/m² | - |
| 1778165410 | 12.78° C | 75% | 1012.5 hPa | 0 mm | - | 424 W/m² | - |
* Rain latest hour (hover to see other rain measurements)
** Current wind speed in m/s (hover to see current wind gust speed)